createdAt,value
2023-02-23T00:01:01.654Z,8.70
2023-02-23T00:03:49.329Z,8.67
2023-02-23T00:06:38.054Z,8.40
2023-02-23T00:09:27.832Z,9.10
2023-02-23T00:12:18.022Z,9.00
2023-02-23T00:15:05.278Z,8.50
2023-02-23T00:17:51.877Z,9.73
2023-02-23T00:20:44.580Z,9.03
2023-02-23T00:23:31.521Z,9.03
2023-02-23T00:26:20.949Z,8.67
2023-02-23T00:29:10.436Z,8.80
2023-02-23T00:31:57.290Z,8.33
2023-02-23T00:34:44.079Z,9.20
2023-02-23T00:37:31.375Z,9.00
2023-02-23T00:40:21.092Z,7.93
2023-02-23T00:43:08.830Z,9.27
2023-02-23T00:45:56.319Z,8.00
2023-02-23T00:48:43.711Z,8.63
2023-02-23T00:51:31.181Z,10.10
2023-02-23T00:54:19.656Z,8.73
2023-02-23T00:57:06.569Z,8.70
2023-02-23T00:59:54.727Z,9.47
2023-02-23T01:02:42.595Z,8.30
2023-02-23T01:05:29.292Z,9.00
2023-02-23T01:08:16.294Z,8.30
2023-02-23T01:11:07.509Z,9.27
2023-02-23T01:13:55.716Z,10.63
2023-02-23T01:16:45.268Z,10.13
2023-02-23T01:19:34.989Z,8.87
2023-02-23T01:22:23.295Z,10.10
2023-02-23T01:25:12.441Z,9.03
2023-02-23T01:27:58.961Z,9.40
2023-02-23T01:30:45.855Z,8.97
2023-02-23T01:33:33.920Z,8.50
2023-02-23T01:36:20.807Z,8.57
2023-02-23T01:39:12.179Z,9.00
2023-02-23T01:42:00.517Z,9.87
2023-02-23T01:45:22.464Z,9.00
2023-02-23T01:48:13.081Z,8.57
2023-02-23T01:51:04.800Z,9.67
2023-02-23T01:53:57.768Z,7.60
2023-02-23T01:56:58.234Z,9.53
2023-02-23T01:59:47.331Z,8.70
2023-02-23T02:02:34.156Z,9.23
2023-02-23T02:05:21.766Z,9.03
2023-02-23T02:08:12.428Z,9.77
2023-02-23T02:11:00.123Z,8.43
2023-02-23T02:13:47.356Z,10.17
2023-02-23T02:16:46.234Z,9.47
2023-02-23T02:20:15.090Z,9.70
2023-02-23T02:23:37.794Z,9.07
2023-02-23T02:26:35.605Z,9.47
2023-02-23T02:29:57.110Z,10.40
2023-02-23T02:33:07.642Z,8.97
2023-02-23T02:36:23.818Z,10.33
2023-02-23T02:39:23.986Z,10.90
2023-02-23T02:42:22.617Z,8.33
2023-02-23T02:45:20.843Z,9.27
2023-02-23T02:48:16.649Z,9.60
2023-02-23T02:51:09.638Z,9.27
2023-02-23T02:54:07.242Z,8.13
2023-02-23T02:56:57.835Z,9.73
2023-02-23T03:00:05.682Z,9.67
2023-02-23T03:03:09.705Z,10.07
2023-02-23T03:06:14.536Z,8.90
2023-02-23T03:09:26.606Z,9.10
2023-02-23T03:12:45.492Z,8.73
2023-02-23T03:16:00.169Z,9.60
2023-02-23T03:19:25.124Z,10.23
2023-02-23T03:22:38.390Z,9.10
2023-02-23T03:25:48.434Z,9.43
2023-02-23T03:29:01.344Z,9.97
2023-02-23T03:32:10.494Z,9.40
2023-02-23T03:35:23.194Z,10.23
2023-02-23T03:38:33.357Z,10.07
2023-02-23T03:41:41.400Z,9.23
2023-02-23T03:44:51.787Z,9.50
2023-02-23T03:47:59.838Z,9.57
2023-02-23T03:51:10.023Z,8.83
2023-02-23T03:54:20.661Z,9.33
2023-02-23T03:57:28.846Z,10.80
2023-02-23T04:00:38.274Z,9.83
2023-02-23T04:03:44.489Z,10.40
2023-02-23T04:06:54.448Z,10.30
2023-02-23T04:09:59.068Z,9.57
2023-02-23T04:13:11.472Z,10.27
2023-02-23T04:16:02.103Z,9.57
2023-02-23T04:18:48.582Z,9.27
2023-02-23T04:21:35.405Z,9.17
2023-02-23T04:24:22.598Z,10.70
2023-02-23T04:27:09.336Z,9.67
2023-02-23T04:29:56.098Z,10.07
2023-02-23T04:32:46.206Z,10.80
2023-02-23T04:35:33.182Z,9.70
2023-02-23T04:38:19.745Z,10.10
2023-02-23T04:41:06.691Z,10.17
2023-02-23T04:43:53.356Z,9.87
2023-02-23T04:46:40.106Z,10.90
2023-02-23T04:49:28.625Z,9.53
2023-02-23T04:52:15.417Z,10.73
2023-02-23T04:55:02.333Z,9.67
2023-02-23T04:57:49.549Z,9.80
2023-02-23T05:00:39.467Z,10.60
2023-02-23T05:03:28.547Z,9.90
2023-02-23T05:06:16.721Z,10.07
2023-02-23T05:09:05.198Z,10.07
2023-02-23T05:11:52.007Z,9.83
2023-02-23T05:14:38.866Z,10.30
2023-02-23T05:17:26.216Z,9.57
2023-02-23T05:20:14.964Z,11.07
2023-02-23T05:23:03.086Z,11.20
2023-02-23T05:25:49.689Z,9.73
2023-02-23T05:28:38.495Z,10.27
2023-02-23T05:31:26.763Z,9.17
2023-02-23T05:34:14.288Z,12.10
2023-02-23T05:37:03.743Z,10.50
2023-02-23T05:39:55.494Z,9.90
2023-02-23T05:42:42.312Z,9.47
2023-02-23T05:45:29.040Z,10.00
2023-02-23T05:48:17.388Z,9.97
2023-02-23T05:51:05.360Z,11.03
2023-02-23T05:53:52.207Z,10.83
2023-02-23T05:56:40.287Z,10.63
2023-02-23T05:59:27.202Z,10.80
2023-02-23T06:02:14.218Z,11.03
2023-02-23T06:05:01.109Z,10.97
2023-02-23T06:07:48.225Z,9.77
2023-02-23T06:10:34.982Z,9.77
2023-02-23T06:13:22.968Z,11.83
2023-02-23T06:16:10.118Z,13.63
2023-02-23T06:18:56.594Z,10.30
2023-02-23T06:21:43.234Z,10.17
2023-02-23T06:24:30.058Z,11.30
2023-02-23T06:27:17.030Z,10.07
2023-02-23T06:30:05.514Z,11.83
2023-02-23T06:32:52.263Z,10.30
2023-02-23T06:35:41.476Z,11.07
2023-02-23T06:38:28.421Z,11.17
2023-02-23T06:41:15.163Z,10.80
2023-02-23T06:44:01.772Z,10.50
2023-02-23T06:46:50.189Z,11.13
2023-02-23T06:49:37.152Z,11.67
2023-02-23T06:52:25.123Z,10.97
2023-02-23T06:55:13.233Z,10.67
2023-02-23T06:57:59.907Z,11.33
2023-02-23T07:00:46.764Z,11.27
2023-02-23T07:03:35.292Z,11.60
2023-02-23T07:06:21.812Z,10.93
2023-02-23T07:09:08.711Z,12.17
2023-02-23T07:11:55.641Z,11.60
2023-02-23T07:14:42.359Z,11.77
2023-02-23T07:17:29.314Z,12.37
2023-02-23T07:20:17.577Z,11.57
2023-02-23T07:23:04.352Z,12.57
2023-02-23T07:25:51.981Z,11.87
2023-02-23T07:28:38.725Z,11.67
2023-02-23T07:31:26.325Z,13.20
2023-02-23T07:34:12.997Z,11.23
2023-02-23T07:37:01.197Z,11.87
2023-02-23T07:39:48.013Z,12.40
2023-02-23T07:42:34.889Z,11.77
2023-02-23T07:45:25.003Z,12.07
2023-02-23T07:48:11.794Z,12.13
2023-02-23T07:50:58.550Z,12.07
2023-02-23T07:53:46.751Z,11.50
2023-02-23T07:56:33.841Z,12.03
2023-02-23T07:59:20.247Z,12.80
2023-02-23T08:02:07.236Z,13.17
2023-02-23T08:04:55.282Z,12.17
2023-02-23T08:07:42.145Z,12.77
2023-02-23T08:10:30.256Z,10.97
2023-02-23T08:13:17.210Z,11.67
2023-02-23T08:16:03.650Z,10.80
2023-02-23T08:18:50.417Z,12.27
2023-02-23T08:21:37.343Z,11.37
2023-02-23T08:24:24.384Z,13.17
2023-02-23T08:27:12.946Z,12.00
2023-02-23T08:30:00.901Z,11.37
2023-02-23T08:32:47.609Z,12.37
2023-02-23T08:35:34.379Z,11.57
2023-02-23T08:38:21.101Z,12.33
2023-02-23T08:41:07.994Z,12.30
2023-02-23T08:43:56.216Z,12.33
2023-02-23T08:46:45.300Z,12.17
2023-02-23T08:49:33.586Z,12.93
2023-02-23T08:52:20.302Z,12.17
2023-02-23T08:55:08.734Z,12.53
2023-02-23T08:57:56.397Z,12.80
2023-02-23T09:00:44.290Z,12.80
2023-02-23T09:03:34.207Z,11.63
2023-02-23T09:06:25.423Z,12.97
2023-02-23T09:09:12.181Z,12.47
2023-02-23T09:11:59.976Z,11.63
2023-02-23T09:14:46.456Z,11.73
2023-02-23T09:17:34.539Z,13.00
2023-02-23T09:20:26.749Z,13.17
2023-02-23T09:23:14.209Z,13.53
2023-02-23T09:26:04.233Z,13.03
2023-02-23T09:28:51.164Z,12.10
2023-02-23T09:31:40.748Z,13.47
2023-02-23T09:34:30.855Z,12.80
2023-02-23T09:37:17.607Z,13.23
2023-02-23T09:40:04.627Z,12.30
2023-02-23T09:43:00.430Z,11.17
2023-02-23T09:45:51.163Z,12.90
2023-02-23T09:48:37.854Z,12.20
2023-02-23T09:51:26.659Z,13.13
2023-02-23T09:54:15.427Z,11.93
2023-02-23T09:57:04.976Z,13.27
2023-02-23T09:59:51.755Z,13.30
2023-02-23T10:02:46.299Z,12.57
2023-02-23T10:05:40.053Z,13.47
2023-02-23T10:08:41.717Z,11.80
2023-02-23T10:11:38.424Z,14.50
2023-02-23T10:14:44.105Z,12.73
2023-02-23T10:17:40.256Z,12.27
2023-02-23T10:20:36.225Z,13.60
2023-02-23T10:23:31.435Z,11.47
2023-02-23T10:26:23.043Z,13.00
2023-02-23T10:29:20.210Z,12.60
2023-02-23T10:32:16.197Z,10.40
2023-02-23T10:35:06.515Z,11.20
2023-02-23T10:37:54.173Z,11.60
2023-02-23T10:40:42.450Z,12.53
2023-02-23T10:43:31.088Z,12.03
2023-02-23T10:46:23.362Z,11.13
2023-02-23T10:49:19.221Z,11.67
2023-02-23T10:52:07.536Z,12.40
2023-02-23T10:54:54.558Z,11.23
2023-02-23T10:57:41.483Z,14.20
2023-02-23T11:00:33.221Z,13.60
2023-02-23T11:03:26.399Z,13.17
2023-02-23T11:06:30.132Z,13.60
2023-02-23T11:09:41.233Z,13.43
2023-02-23T11:12:41.968Z,13.87
2023-02-23T11:15:49.180Z,12.63
2023-02-23T11:18:38.260Z,12.90
2023-02-23T11:21:29.510Z,12.03
2023-02-23T11:24:23.464Z,14.70
2023-02-23T11:27:23.111Z,13.00
2023-02-23T11:30:14.385Z,13.07
2023-02-23T11:33:11.274Z,13.50
2023-02-23T11:36:00.357Z,13.70
2023-02-23T11:38:49.610Z,14.47
2023-02-23T11:41:37.444Z,12.50
2023-02-23T11:44:25.151Z,10.83
2023-02-23T11:47:20.662Z,12.00
2023-02-23T11:50:21.576Z,12.97
2023-02-23T11:53:15.644Z,13.20
2023-02-23T11:56:08.251Z,12.33
2023-02-23T11:58:57.800Z,13.03
2023-02-23T12:01:46.565Z,12.47
2023-02-23T12:04:37.289Z,13.20
2023-02-23T12:07:37.501Z,12.07
2023-02-23T12:10:27.891Z,14.27
2023-02-23T12:13:26.770Z,14.40
2023-02-23T12:16:20.021Z,13.57
2023-02-23T12:19:23.063Z,13.57
2023-02-23T12:22:14.685Z,13.60
2023-02-23T12:25:05.546Z,12.33
2023-02-23T12:28:05.087Z,13.07
2023-02-23T12:31:02.385Z,14.00
2023-02-23T12:33:54.919Z,13.83
2023-02-23T12:36:46.678Z,13.67
2023-02-23T12:39:37.272Z,12.50
2023-02-23T12:42:32.004Z,13.97
2023-02-23T12:45:24.660Z,12.80
2023-02-23T12:48:25.697Z,13.80
2023-02-23T12:51:19.497Z,12.57
2023-02-23T12:54:06.731Z,12.90
2023-02-23T12:57:06.088Z,12.33
2023-02-23T13:00:30.887Z,14.10
2023-02-23T13:03:43.551Z,13.53
2023-02-23T13:06:38.262Z,13.23
2023-02-23T13:09:37.721Z,12.40
2023-02-23T13:12:37.212Z,12.80
2023-02-23T13:15:31.093Z,13.40
2023-02-23T13:18:25.654Z,12.33
2023-02-23T13:21:20.749Z,13.27
2023-02-23T13:24:13.769Z,13.03
2023-02-23T13:27:04.618Z,13.47
2023-02-23T13:29:55.042Z,12.67
2023-02-23T13:32:42.989Z,13.87
2023-02-23T13:35:35.550Z,14.63
2023-02-23T13:38:27.284Z,13.93
2023-02-23T13:41:28.898Z,13.17
2023-02-23T13:44:22.682Z,12.97
2023-02-23T13:47:23.481Z,13.00
2023-02-23T13:50:22.736Z,12.23
2023-02-23T13:53:30.068Z,12.27
2023-02-23T13:56:19.542Z,12.43
2023-02-23T13:59:09.781Z,11.93
2023-02-23T14:01:57.611Z,12.30
2023-02-23T14:04:44.435Z,12.90
2023-02-23T14:07:34.295Z,10.80
2023-02-23T14:10:23.011Z,11.27
2023-02-23T14:13:28.222Z,10.63
2023-02-23T14:16:19.212Z,10.93
2023-02-23T14:19:11.245Z,11.67
2023-02-23T14:22:02.295Z,12.37
2023-02-23T14:25:24.917Z,12.23
2023-02-23T14:28:28.131Z,12.93
2023-02-23T14:31:22.635Z,12.07
2023-02-23T14:34:14.362Z,12.80
2023-02-23T14:37:15.642Z,12.13
2023-02-23T14:40:10.143Z,13.87
2023-02-23T14:42:59.647Z,14.50
2023-02-23T14:45:47.863Z,14.13
2023-02-23T14:48:36.714Z,13.53
2023-02-23T14:51:28.903Z,13.97
2023-02-23T14:54:25.022Z,15.40
2023-02-23T14:57:19.151Z,14.90
2023-02-23T15:00:16.740Z,16.70
2023-02-23T15:03:09.044Z,15.10
2023-02-23T15:05:58.204Z,18.00
2023-02-23T15:08:46.623Z,17.00
2023-02-23T15:11:33.751Z,16.90
2023-02-23T15:14:28.417Z,15.87
2023-02-23T15:17:19.466Z,16.43
2023-02-23T15:23:21.557Z,16.67
2023-02-23T15:26:24.216Z,16.37
2023-02-23T15:29:15.804Z,15.40
2023-02-23T15:32:16.142Z,16.77
2023-02-23T15:35:04.688Z,18.47
2023-02-23T15:38:05.631Z,17.40
2023-02-23T15:41:03.603Z,17.20
2023-02-23T15:43:50.544Z,18.30
2023-02-23T15:46:38.099Z,19.07
2023-02-23T15:49:29.699Z,18.50
2023-02-23T15:52:22.002Z,20.57
2023-02-23T15:55:14.463Z,18.80
2023-02-23T15:58:03.259Z,19.93
2023-02-23T16:00:56.544Z,18.10
2023-02-23T16:03:48.337Z,19.33
2023-02-23T16:06:38.076Z,18.33
2023-02-23T16:09:30.167Z,19.87
2023-02-23T16:12:21.862Z,20.10
2023-02-23T16:15:24.213Z,18.83
2023-02-23T16:18:17.648Z,19.20
2023-02-23T16:21:06.938Z,19.50
2023-02-23T16:23:55.764Z,19.50
2023-02-23T16:26:50.513Z,18.90
2023-02-23T16:29:42.225Z,19.47
2023-02-23T16:32:38.078Z,20.00
2023-02-23T16:35:25.263Z,19.43
2023-02-23T16:38:15.108Z,19.23
2023-02-23T16:41:03.832Z,19.40
2023-02-23T16:43:53.102Z,19.40
2023-02-23T16:46:58.229Z,19.87
2023-02-23T16:49:44.901Z,19.93
2023-02-23T16:52:32.784Z,20.20
2023-02-23T16:55:25.908Z,20.07
2023-02-23T16:58:18.928Z,20.57
2023-02-23T17:01:05.868Z,20.53
2023-02-23T17:03:54.626Z,20.67
2023-02-23T17:06:41.608Z,21.10
2023-02-23T17:09:28.485Z,19.63
2023-02-23T17:12:18.486Z,18.43
2023-02-23T17:15:05.905Z,19.00
2023-02-23T17:17:53.463Z,21.53
2023-02-23T17:20:41.818Z,21.17
2023-02-23T17:23:38.376Z,23.43
2023-02-23T17:26:26.206Z,22.07
2023-02-23T17:29:12.760Z,21.33
2023-02-23T17:32:00.778Z,23.17
2023-02-23T17:34:50.241Z,21.43
2023-02-23T17:37:38.604Z,21.63
2023-02-23T17:40:28.965Z,22.47
2023-02-23T17:43:16.002Z,22.63
2023-02-23T17:46:03.018Z,22.60
2023-02-23T17:48:49.580Z,22.90
2023-02-23T17:51:36.610Z,22.07
2023-02-23T17:54:24.523Z,22.03
2023-02-23T17:57:11.287Z,22.30
2023-02-23T17:59:58.634Z,22.83
2023-02-23T18:02:46.733Z,22.10
2023-02-23T18:05:33.106Z,23.10
2023-02-23T18:08:20.304Z,21.13
2023-02-23T18:11:08.933Z,21.27
2023-02-23T18:13:55.400Z,22.10
2023-02-23T18:16:42.058Z,21.43
2023-02-23T18:19:29.823Z,21.40
2023-02-23T18:22:16.662Z,20.73
2023-02-23T18:25:03.524Z,20.23
2023-02-23T18:27:55.249Z,20.67
2023-02-23T18:30:42.676Z,19.07
2023-02-23T18:33:29.271Z,19.53
2023-02-23T18:36:19.756Z,20.13
2023-02-23T18:39:08.241Z,19.60
2023-02-23T18:41:54.974Z,19.77
2023-02-23T18:44:43.183Z,21.07
2023-02-23T18:47:29.987Z,21.13
2023-02-23T18:50:19.297Z,19.70
2023-02-23T18:53:08.513Z,19.33
2023-02-23T18:55:54.979Z,19.87
2023-02-23T18:58:43.215Z,19.07
2023-02-23T19:01:33.488Z,20.00
2023-02-23T19:04:20.093Z,18.70
2023-02-23T19:07:06.926Z,19.70
2023-02-23T19:09:53.750Z,18.70
2023-02-23T19:12:40.931Z,17.97
2023-02-23T19:15:27.696Z,19.50
2023-02-23T19:18:15.813Z,18.07
2023-02-23T19:21:02.649Z,18.70
2023-02-23T19:23:49.790Z,17.20
2023-02-23T19:26:38.426Z,18.43
2023-02-23T19:29:24.789Z,17.77
2023-02-23T19:32:11.708Z,17.30
2023-02-23T19:34:59.809Z,18.23
2023-02-23T19:37:48.736Z,17.50
2023-02-23T19:40:35.365Z,17.80
2023-02-23T19:43:22.064Z,18.50
2023-02-23T19:46:10.703Z,16.97
2023-02-23T19:48:57.659Z,16.50
2023-02-23T19:51:45.494Z,15.13
2023-02-23T19:54:38.971Z,17.03
2023-02-23T19:57:31.023Z,15.13
2023-02-23T20:00:22.582Z,15.77
2023-02-23T20:03:15.169Z,14.40
2023-02-23T20:06:05.780Z,14.17
2023-02-23T20:08:55.153Z,13.23
2023-02-23T20:11:49.395Z,13.57
2023-02-23T20:14:49.857Z,12.47
2023-02-23T20:17:40.439Z,13.20
2023-02-23T20:20:29.471Z,13.47
2023-02-23T20:23:17.292Z,13.37
2023-02-23T20:26:07.744Z,12.40
2023-02-23T20:28:55.599Z,14.67
2023-02-23T20:31:50.707Z,15.13
2023-02-23T20:34:39.264Z,15.30
2023-02-23T20:37:25.976Z,15.30
2023-02-23T20:40:18.826Z,15.77
2023-02-23T20:43:07.791Z,15.70
2023-02-23T20:45:54.205Z,14.93
2023-02-23T20:48:41.659Z,14.87
2023-02-23T20:51:28.638Z,15.67
2023-02-23T20:54:16.018Z,15.77
2023-02-23T20:57:07.628Z,16.23
2023-02-23T20:59:55.364Z,15.47
2023-02-23T21:02:42.262Z,14.20
2023-02-23T21:05:32.031Z,15.43
2023-02-23T21:08:20.156Z,15.67
2023-02-23T21:11:08.992Z,14.67
2023-02-23T21:13:58.364Z,14.43
2023-02-23T21:16:46.906Z,15.23
2023-02-23T21:19:33.556Z,15.77
2023-02-23T21:22:20.289Z,14.60
2023-02-23T21:25:08.442Z,15.70
2023-02-23T21:27:57.276Z,13.30
2023-02-23T21:30:52.092Z,14.40
2023-02-23T21:33:41.501Z,15.43
2023-02-23T21:36:28.151Z,16.13
2023-02-23T21:39:15.242Z,16.33
2023-02-23T21:42:03.503Z,15.57
2023-02-23T21:44:51.070Z,14.40
2023-02-23T21:47:38.170Z,16.87
2023-02-23T21:50:26.081Z,15.73
2023-02-23T21:53:13.554Z,16.67
2023-02-23T21:56:00.115Z,15.73
2023-02-23T21:58:48.881Z,16.20
2023-02-23T22:01:38.250Z,17.07
2023-02-23T22:04:25.182Z,14.50
2023-02-23T22:07:22.067Z,16.63
2023-02-23T22:10:09.535Z,17.23
2023-02-23T22:12:57.053Z,16.90
2023-02-23T22:15:43.617Z,18.40
2023-02-23T22:18:30.905Z,18.10
2023-02-23T22:21:19.156Z,16.10
2023-02-23T22:24:08.732Z,17.40
2023-02-23T22:27:00.577Z,17.57
2023-02-23T22:29:48.417Z,17.00
2023-02-23T22:32:39.232Z,16.83
2023-02-23T22:35:26.566Z,17.63
2023-02-23T22:38:13.862Z,16.63
2023-02-23T22:41:05.970Z,18.67
2023-02-23T22:43:52.713Z,17.50
2023-02-23T22:46:42.770Z,16.97
2023-02-23T22:49:30.276Z,18.87
2023-02-23T22:52:17.183Z,18.10
2023-02-23T22:55:04.355Z,19.10
2023-02-23T22:57:52.163Z,16.53
2023-02-23T23:00:39.126Z,17.33
2023-02-23T23:03:27.376Z,17.10
2023-02-23T23:06:17.836Z,17.73
2023-02-23T23:09:07.782Z,16.27
2023-02-23T23:11:56.756Z,17.23
2023-02-23T23:14:44.753Z,17.40
2023-02-23T23:17:32.794Z,16.07
2023-02-23T23:20:25.708Z,17.63
2023-02-23T23:23:12.614Z,15.30
2023-02-23T23:25:59.925Z,14.77
2023-02-23T23:28:49.182Z,14.93
2023-02-23T23:31:38.334Z,15.90
2023-02-23T23:34:25.393Z,15.03
2023-02-23T23:37:11.918Z,15.87
2023-02-23T23:40:02.236Z,15.33
2023-02-23T23:42:49.172Z,14.43
2023-02-23T23:45:38.307Z,16.00
2023-02-23T23:48:26.471Z,15.67
2023-02-23T23:51:13.364Z,14.50
2023-02-23T23:54:02.655Z,14.93
2023-02-23T23:56:50.258Z,14.90
2023-02-23T23:59:41.581Z,14.57
